Time;durP1;ratioP1;P1;durP2;ratioP2;P2;SDS_P1;SDS_P2;PMS_P1;PMS_P2;Temp;Humidity;BMP_temperature;BMP_pressure;BME280_temperature;BME280_humidity;BME280_pressure;Samples;Min_cycle;Max_cycle;Signal;HPM_P1;HPM_P2
2021/01/23 00:00:34;;;;;;;9.75;3.42;;;12.90;62.80;;;;;;2098536;28;20040;-75
2021/01/23 00:01:37;;;;;;;9.38;3.05;;;13.10;62.90;;;;;;2098441;28;20059;-75
2021/01/23 00:02:39;;;;;;;9.55;3.38;;;13.30;62.60;;;;;;2098956;28;20138;-74
2021/01/23 00:03:41;;;;;;;6.93;2.65;;;13.30;61.40;;;;;;2099423;28;20135;-74
2021/01/23 00:04:42;;;;;;;8.13;3.17;;;13.40;62.90;;;;;;2099296;28;20049;-76
2021/01/23 00:05:45;;;;;;;7.00;2.97;;;13.00;61.40;;;;;;2099477;28;20048;-74
2021/01/23 00:06:47;;;;;;;10.45;3.75;;;12.60;64.00;;;;;;2099708;28;20053;-75
2021/01/23 00:07:49;;;;;;;9.30;3.83;;;12.70;64.20;;;;;;2099579;28;20057;-75
2021/01/23 00:08:50;;;;;;;7.28;2.67;;;12.40;62.50;;;;;;2099475;28;20044;-75
2021/01/23 00:09:52;;;;;;;9.25;3.05;;;12.30;66.40;;;;;;2099196;28;20048;-74
2021/01/23 00:10:54;;;;;;;;;;;12.40;65.80;;;;;;2100030;28;20415;-74
2021/01/23 00:11:56;;;;;;;5.22;1.95;;;12.90;65.30;;;;;;2099302;28;20395;-75
2021/01/23 00:12:59;;;;;;;4.65;2.50;;;13.30;64.90;;;;;;2099095;28;20416;-75
2021/01/23 00:14:01;;;;;;;11.75;2.72;;;13.70;63.40;;;;;;2099464;28;20048;-75
2021/01/23 00:15:05;;;;;;;3.58;2.13;;;13.40;62.60;;;;;;2099142;28;20373;-75
2021/01/23 00:16:07;;;;;;;5.70;2.50;;;13.70;62.40;;;;;;2099164;28;20052;-74
2021/01/23 00:17:08;;;;;;;6.20;2.50;;;13.90;59.90;;;;;;2099428;28;20053;-75
2021/01/23 00:18:10;;;;;;;;;;;13.80;60.80;;;;;;2100056;28;20045;-75
2021/01/23 00:19:14;;;;;;;4.55;2.00;;;13.50;60.90;;;;;;2100191;28;19920;-74
2021/01/23 00:20:15;;;;;;;8.75;2.97;;;13.60;62.10;;;;;;2100423;28;20048;-75
2021/01/23 00:21:19;;;;;;;9.82;3.20;;;13.70;60.00;;;;;;2100566;28;20169;-75
2021/01/23 00:22:21;;;;;;;7.80;2.60;;;13.50;58.70;;;;;;2099855;28;20512;-75
2021/01/23 00:23:23;;;;;;;6.20;2.42;;;13.10;62.10;;;;;;2099702;28;20452;-75
2021/01/23 00:24:24;;;;;;;9.45;2.92;;;13.20;62.40;;;;;;2100787;28;20051;-75
2021/01/23 00:25:26;;;;;;;8.57;3.33;;;12.50;63.20;;;;;;2100422;28;20045;-75
2021/01/23 00:26:28;;;;;;;5.63;2.95;;;12.50;64.40;;;;;;2100052;28;20066;-75
2021/01/23 00:27:29;;;;;;;7.50;2.90;;;12.60;65.60;;;;;;2100472;28;20052;-75
2021/01/23 00:28:33;;;;;;;3.10;2.13;;;12.80;64.30;;;;;;2099811;28;20512;-75
2021/01/23 00:29:39;;;;;;;9.07;3.20;;;13.40;64.80;;;;;;2098856;28;20079;-75
2021/01/23 00:30:41;;;;;;;11.10;4.05;;;13.30;62.30;;;;;;2098919;28;20045;-75
2021/01/23 00:31:42;;;;;;;5.50;1.90;;;13.10;60.70;;;;;;2098337;28;20123;-75
2021/01/23 00:32:44;;;;;;;;;;;12.80;64.60;;;;;;2098505;28;20076;-75
2021/01/23 00:33:46;;;;;;;11.18;2.95;;;12.30;62.00;;;;;;2097901;28;19962;-75
2021/01/23 00:34:48;;;;;;;6.30;2.10;;;12.40;64.40;;;;;;2097861;28;20051;-75
2021/01/23 00:35:50;;;;;;;4.82;2.20;;;12.50;66.50;;;;;;2097855;28;20162;-75
2021/01/23 00:36:52;;;;;;;9.60;3.15;;;13.00;65.60;;;;;;2097951;28;20059;-75
2021/01/23 00:37:54;;;;;;;6.85;2.95;;;12.70;63.70;;;;;;2098092;28;20056;-75
2021/01/23 00:38:55;;;;;;;9.75;2.67;;;13.10;64.90;;;;;;2097755;28;20067;-75
2021/01/23 00:39:57;;;;;;;6.05;2.55;;;13.30;61.90;;;;;;2097955;28;20044;-75
2021/01/23 00:40:59;;;;;;;7.80;2.55;;;12.80;63.30;;;;;;2105784;28;20055;-75
2021/01/23 00:42:02;;;;;;;5.40;2.45;;;13.20;63.10;;;;;;2105132;28;20080;-75
2021/01/23 00:43:04;;;;;;;6.45;2.20;;;13.20;62.40;;;;;;2098130;28;20048;-75
2021/01/23 00:44:06;;;;;;;5.95;2.20;;;13.20;63.10;;;;;;2097737;28;20045;-75
2021/01/23 00:45:10;;;;;;;5.90;1.98;;;13.10;62.30;;;;;;2097838;28;20045;-74
2021/01/23 00:46:12;;;;;;;3.03;1.80;;;13.40;63.70;;;;;;2097900;28;20549;-75
2021/01/23 00:47:14;;;;;;;4.07;2.13;;;13.80;62.30;;;;;;2105648;28;20075;-75
2021/01/23 00:48:16;;;;;;;5.20;2.30;;;14.10;61.30;;;;;;2105523;28;20044;-75
2021/01/23 00:49:19;;;;;;;3.97;2.25;;;14.10;59.30;;;;;;2098051;28;20062;-74
2021/01/23 00:50:20;;;;;;;6.63;2.70;;;14.20;60.20;;;;;;2097750;28;20048;-75
2021/01/23 00:51:22;;;;;;;8.15;2.58;;;14.20;59.40;;;;;;2098175;28;20508;-75
2021/01/23 00:52:24;;;;;;;5.65;2.47;;;14.20;57.10;;;;;;2097761;28;20040;-75
2021/01/23 00:53:25;;;;;;;7.72;2.83;;;13.80;58.70;;;;;;2098110;28;20512;-75
2021/01/23 00:54:27;;;;;;;6.90;2.50;;;13.50;58.00;;;;;;2098354;28;20052;-74
2021/01/23 00:55:28;;;;;;;6.15;2.38;;;13.60;60.30;;;;;;2100068;28;20052;-75
2021/01/23 00:56:30;;;;;;;5.18;2.05;;;13.30;61.80;;;;;;2099924;28;20075;-75
2021/01/23 00:57:32;;;;;;;9.27;2.78;;;13.00;63.60;;;;;;2099807;28;20447;-75
2021/01/23 00:58:34;;;;;;;7.05;2.55;;;12.90;61.10;;;;;;2099478;28;20045;-74
2021/01/23 00:59:36;;;;;;;;;;;12.80;64.40;;;;;;2100256;28;20106;-75
2021/01/23 01:00:39;;;;;;;6.75;2.28;;;12.80;62.20;;;;;;2099967;28;19928;-74
2021/01/23 01:01:41;;;;;;;5.38;2.55;;;12.90;64.30;;;;;;2100007;28;20064;-75
2021/01/23 01:02:43;;;;;;;6.32;1.70;;;13.00;63.30;;;;;;2099546;28;20055;-75
2021/01/23 01:03:45;;;;;;;8.82;3.08;;;13.40;63.40;;;;;;2099539;28;20040;-75
2021/01/23 01:04:48;;;;;;;10.38;2.53;;;12.80;61.70;;;;;;2099713;28;20049;-75
2021/01/23 01:05:49;;;;;;;6.28;2.05;;;12.30;65.20;;;;;;2099982;28;20049;-75
2021/01/23 01:06:51;;;;;;;7.63;2.17;;;12.90;66.00;;;;;;2099545;28;20045;-74
2021/01/23 01:07:53;;;;;;;8.05;2.05;;;13.20;63.10;;;;;;2099371;28;20045;-74
2021/01/23 01:08:54;;;;;;;4.22;2.08;;;13.20;63.90;;;;;;2099347;28;20496;-74
2021/01/23 01:09:56;;;;;;;4.72;1.90;;;13.40;63.60;;;;;;2098710;28;20045;-74
2021/01/23 01:10:58;;;;;;;6.05;2.17;;;13.60;62.30;;;;;;2098848;28;20063;-75
2021/01/23 01:12:01;;;;;;;8.40;2.45;;;13.40;60.50;;;;;;2099542;28;20049;-75
2021/01/23 01:13:02;;;;;;;5.32;2.45;;;13.30;62.80;;;;;;2099256;28;20134;-75
2021/01/23 01:14:04;;;;;;;;;;;13.80;62.90;;;;;;2099972;28;20084;-75
2021/01/23 01:15:07;;;;;;;4.65;1.80;;;14.00;60.70;;;;;;2100498;28;19927;-75
2021/01/23 01:16:10;;;;;;;4.45;2.03;;;13.80;60.40;;;;;;2101019;28;20135;-76
2021/01/23 01:17:13;;;;;;;4.10;2.05;;;13.90;60.30;;;;;;2100850;28;20061;-75
2021/01/23 01:18:15;;;;;;;9.85;2.72;;;13.90;59.80;;;;;;2102238;28;20052;-75
2021/01/23 01:19:17;;;;;;;4.38;1.77;;;13.40;59.00;;;;;;2101958;28;20070;-75
2021/01/23 01:20:19;;;;;;;8.27;2.58;;;13.40;61.80;;;;;;2102105;28;20401;-74
2021/01/23 01:21:20;;;;;;;6.18;2.30;;;13.30;59.20;;;;;;2102013;28;20409;-75
2021/01/23 01:22:22;;;;;;;6.15;1.98;;;13.30;62.80;;;;;;2102243;28;20049;-75
2021/01/23 01:23:24;;;;;;;5.78;2.35;;;13.40;61.90;;;;;;2101858;28;20075;-74
2021/01/23 01:24:25;;;;;;;3.92;1.65;;;13.40;61.10;;;;;;2101998;28;20059;-75
2021/01/23 01:25:28;;;;;;;13.13;3.00;;;13.30;61.80;;;;;;2102344;28;20060;-75
2021/01/23 01:26:29;;;;;;;3.80;2.00;;;13.50;60.20;;;;;;2101554;28;20048;-74
2021/01/23 01:27:34;;;;;;;5.78;2.47;;;13.50;61.40;;;;;;2099211;28;20078;-75
2021/01/23 01:28:35;;;;;;;;;;;12.80;62.60;;;;;;2099402;28;20503;-74
2021/01/23 01:29:37;;;;;;;5.15;2.03;;;12.50;63.20;;;;;;2099112;28;19943;-75
2021/01/23 01:30:38;;;;;;;3.90;1.80;;;13.10;64.10;;;;;;2098969;28;20056;-75
2021/01/23 01:31:41;;;;;;;12.05;3.35;;;13.40;63.70;;;;;;2099585;28;20056;-75
2021/01/23 01:32:43;;;;;;;7.68;1.90;;;12.80;61.50;;;;;;2099248;28;20048;-75
2021/01/23 01:33:45;;;;;;;3.65;2.30;;;13.00;63.70;;;;;;2099082;28;20055;-74
2021/01/23 01:34:47;;;;;;;7.93;2.17;;;13.00;63.10;;;;;;2099326;28;20045;-74
2021/01/23 01:35:49;;;;;;;5.65;2.22;;;12.90;62.90;;;;;;2099036;28;20354;-77
2021/01/23 01:36:50;;;;;;;11.70;3.13;;;13.00;62.20;;;;;;2098848;28;20044;-75
2021/01/23 01:37:52;;;;;;;6.90;2.45;;;13.00;61.20;;;;;;2098847;28;20076;-75
2021/01/23 01:38:54;;;;;;;5.82;2.20;;;13.00;62.90;;;;;;2098976;28;20053;-75
2021/01/23 01:39:55;;;;;;;6.60;2.55;;;13.00;59.90;;;;;;2099273;28;20489;-74
2021/01/23 01:40:57;;;;;;;8.50;2.28;;;12.70;63.30;;;;;;2099209;28;20048;-74
2021/01/23 01:42:01;;;;;;;4.88;1.75;;;12.70;62.40;;;;;;2099089;28;20074;-75
2021/01/23 01:43:02;;;;;;;4.57;2.10;;;12.20;63.40;;;;;;2099050;28;20496;-74
2021/01/23 01:44:05;;;;;;;4.78;2.40;;;12.50;65.00;;;;;;2098710;28;20412;-75
2021/01/23 01:45:08;;;;;;;7.95;3.05;;;12.20;63.60;;;;;;2098766;28;20074;-75
2021/01/23 01:46:13;;;;;;;11.30;3.00;;;11.90;64.70;;;;;;2098668;28;20053;-75
2021/01/23 01:47:17;;;;;;;6.57;2.03;;;11.90;65.60;;;;;;2106408;28;20047;-75
2021/01/23 01:48:19;;;;;;;5.72;2.13;;;12.40;67.60;;;;;;2106183;28;20044;-74
2021/01/23 01:49:20;;;;;;;5.13;2.28;;;12.70;65.60;;;;;;2098802;28;20044;-75
2021/01/23 01:50:22;;;;;;;7.85;3.17;;;12.40;62.80;;;;;;2098910;28;20044;-75
2021/01/23 01:51:24;;;;;;;10.15;2.88;;;11.40;64.40;;;;;;2098775;28;20045;-75
2021/01/23 01:52:26;;;;;;;6.35;2.00;;;10.90;67.20;;;;;;2098927;28;20502;-74
2021/01/23 01:53:27;;;;;;;;;;;11.10;72.60;;;;;;2099447;28;20386;-75
2021/01/23 01:54:30;;;;;;;6.18;1.98;;;11.10;70.10;;;;;;2099015;28;19920;-75
2021/01/23 01:55:33;;;;;;;10.15;2.33;;;11.80;69.30;;;;;;2099157;28;20052;-74
2021/01/23 01:56:34;;;;;;;5.68;2.55;;;11.90;67.80;;;;;;2098857;28;20049;-74
2021/01/23 01:57:36;;;;;;;6.82;2.85;;;11.50;69.60;;;;;;2107024;28;20052;-75
2021/01/23 01:58:38;;;;;;;;;;;11.90;68.10;;;;;;2107081;28;20071;-75
2021/01/23 01:59:40;;;;;;;5.40;1.95;;;12.10;67.60;;;;;;2099191;28;19920;-75
2021/01/23 02:00:42;;;;;;;7.60;2.25;;;11.70;67.20;;;;;;2098849;28;20082;-75
2021/01/23 02:01:44;;;;;;;12.60;3.22;;;11.70;68.50;;;;;;2098883;28;20299;-74
2021/01/23 02:03:29;;;;;;;4.63;1.92;;;11.40;66.80;;;;;;2099350;28;20045;-75
2021/01/23 02:04:38;;;;;;;6.47;1.98;;;11.70;71.70;;;;;;2098981;28;20052;-75
2021/01/23 02:05:48;;;;;;;4.88;1.40;;;12.50;68.30;;;;;;2098886;28;20052;-74
2021/01/23 02:07:05;;;;;;;10.65;2.67;;;13.00;66.30;;;;;;2099715;28;20055;-75
2021/01/23 02:08:16;;;;;;;8.32;3.00;;;13.10;64.30;;;;;;2100168;28;20095;-74
2021/01/23 02:09:32;;;;;;;6.85;2.17;;;12.30;62.60;;;;;;2100475;28;20047;-75
2021/01/23 02:10:43;;;;;;;4.57;1.90;;;12.40;64.70;;;;;;2100067;28;20083;-74
2021/01/23 02:11:55;;;;;;;11.55;3.10;;;12.50;65.00;;;;;;2100146;28;20067;-75
2021/01/23 02:13:09;;;;;;;6.03;1.73;;;12.00;67.00;;;;;;2100279;28;20059;-75
2021/01/23 02:14:19;;;;;;;6.78;2.50;;;12.40;64.10;;;;;;2099848;28;20048;-75
2021/01/23 02:15:26;;;;;;;3.97;2.05;;;12.30;66.00;;;;;;2100035;28;20052;-74
2021/01/23 02:16:34;;;;;;;9.88;2.42;;;12.10;66.40;;;;;;2100152;28;20047;-75
2021/01/23 02:17:41;;;;;;;15.25;2.83;;;11.70;63.70;;;;;;2099963;28;20079;-74
2021/01/23 02:18:50;;;;;;;8.68;2.60;;;11.40;66.80;;;;;;2099036;28;20090;-75
2021/01/23 02:20:26;;;;;;;7.30;2.10;;;11.30;68.90;;;;;;2098840;28;20049;-75
2021/01/23 02:22:01;;;;;;;5.10;2.28;;;11.40;66.70;;;;;;2080706;28;20046;-74
2021/01/23 02:23:13;;;;;;;8.05;2.40;;;11.70;65.60;;;;;;2098823;28;20492;-75
2021/01/23 02:24:23;;;;;;;5.63;1.65;;;11.70;67.40;;;;;;2098786;28;20072;-75
2021/01/23 02:25:26;;;;;;;8.65;2.47;;;11.70;69.70;;;;;;2098578;28;20485;-75
2021/01/23 02:26:48;;;;;;;6.40;2.15;;;11.60;67.10;;;;;;2098984;28;20044;-74
2021/01/23 02:28:01;;;;;;;9.77;2.40;;;12.00;69.30;;;;;;2099218;28;20048;-75
2021/01/23 02:29:11;;;;;;;5.40;2.00;;;11.80;67.20;;;;;;2099387;28;20053;-76
2021/01/23 02:30:18;;;;;;;6.38;1.95;;;11.90;69.30;;;;;;2099255;28;20500;-75
2021/01/23 02:31:23;;;;;;;6.50;2.30;;;12.10;69.00;;;;;;2099464;28;20044;-75
2021/01/23 02:32:28;;;;;;;5.10;1.90;;;12.30;66.10;;;;;;2099767;28;20051;-75
2021/01/23 02:33:32;;;;;;;6.43;1.92;;;11.90;68.10;;;;;;2100566;28;20558;-75
2021/01/23 02:34:36;;;;;;;5.47;2.28;;;12.50;67.80;;;;;;2100392;28;20055;-76
2021/01/23 02:35:39;;;;;;;5.93;1.92;;;12.80;66.20;;;;;;2100637;28;20045;-75
2021/01/23 02:36:43;;;;;;;11.85;2.78;;;12.60;63.10;;;;;;2099606;28;20048;-74
2021/01/23 02:37:47;;;;;;;6.40;1.92;;;11.90;63.30;;;;;;2101099;28;20049;-75
2021/01/23 02:38:51;;;;;;;7.80;2.13;;;12.20;68.50;;;;;;2107923;28;20056;-74
2021/01/23 02:39:53;;;;;;;8.00;2.13;;;12.00;64.60;;;;;;2107319;28;20052;-76
2021/01/23 02:40:56;;;;;;;4.47;2.25;;;12.10;66.10;;;;;;2099742;28;20045;-75
2021/01/23 02:41:58;;;;;;;7.50;2.30;;;12.40;67.60;;;;;;2099982;28;20058;-74
2021/01/23 02:42:59;;;;;;;4.75;2.28;;;12.70;63.80;;;;;;2100040;28;20052;-75
2021/01/23 02:44:01;;;;;;;3.53;1.70;;;12.50;65.40;;;;;;2099445;28;20040;-74
2021/01/23 02:45:05;;;;;;;15.55;2.50;;;12.80;64.70;;;;;;2099566;28;20485;-75
2021/01/23 02:46:07;;;;;;;6.97;2.13;;;12.80;64.10;;;;;;2099340;28;20075;-75
2021/01/23 02:47:10;;;;;;;4.32;1.77;;;12.90;64.30;;;;;;2098867;28;20093;-74
2021/01/23 02:48:12;;;;;;;8.07;2.45;;;13.30;63.10;;;;;;2099168;28;20076;-74
2021/01/23 02:49:13;;;;;;;7.57;2.78;;;12.90;59.80;;;;;;2099211;28;20049;-74
2021/01/23 02:50:15;;;;;;;6.75;2.08;;;12.20;61.50;;;;;;2099346;28;20159;-74
2021/01/23 02:51:25;;;;;;;7.40;1.83;;;12.10;66.40;;;;;;2099369;28;20044;-75
2021/01/23 02:52:40;;;;;;;11.30;2.58;;;12.40;64.60;;;;;;2099313;28;20049;-74
2021/01/23 02:53:45;;;;;;;7.30;2.22;;;12.00;62.50;;;;;;2099470;28;20071;-74
2021/01/23 02:54:50;;;;;;;7.60;2.65;;;11.90;66.60;;;;;;2099185;28;20056;-74
2021/01/23 02:55:59;;;;;;;6.13;1.90;;;11.40;68.30;;;;;;2099304;28;20056;-75
2021/01/23 02:57:02;;;;;;;7.00;2.17;;;12.00;68.40;;;;;;2098717;28;20049;-75
2021/01/23 02:58:08;;;;;;;7.50;2.53;;;12.30;66.10;;;;;;2098721;28;20056;-74
2021/01/23 02:59:13;;;;;;;3.97;1.98;;;12.40;64.40;;;;;;2098720;28;20048;-75
2021/01/23 03:00:18;;;;;;;3.75;1.80;;;12.40;65.90;;;;;;2098458;28;20105;-75
2021/01/23 03:01:23;;;;;;;4.45;1.83;;;12.60;65.80;;;;;;2098910;28;20497;-75
2021/01/23 03:02:27;;;;;;;9.40;2.20;;;12.90;64.10;;;;;;2098016;28;20098;-75
2021/01/23 03:03:31;;;;;;;8.00;2.78;;;12.20;62.10;;;;;;2098129;28;20371;-75
2021/01/23 03:04:33;;;;;;;5.88;1.90;;;11.90;65.00;;;;;;2098539;28;20408;-74
2021/01/23 03:05:36;;;;;;;5.20;1.83;;;12.30;67.30;;;;;;2098662;28;20049;-75
2021/01/23 03:06:38;;;;;;;6.28;2.00;;;12.30;66.70;;;;;;2098484;28;20051;-74
2021/01/23 03:07:41;;;;;;;5.65;2.30;;;12.60;64.80;;;;;;2098478;28;20496;-75
2021/01/23 03:08:46;;;;;;;;;;;12.30;64.40;;;;;;2099288;28;20063;-74
2021/01/23 03:09:47;;;;;;;4.68;1.60;;;12.20;64.70;;;;;;2098595;28;19940;-75
2021/01/23 03:10:49;;;;;;;11.27;2.65;;;12.60;66.10;;;;;;2098337;28;20052;-75
2021/01/23 03:11:51;;;;;;;5.50;1.95;;;12.80;64.40;;;;;;2098256;28;20049;-75
2021/01/23 03:12:53;;;;;;;6.15;2.33;;;12.90;64.30;;;;;;2098601;28;20049;-75
2021/01/23 03:13:55;;;;;;;6.57;1.92;;;13.10;60.20;;;;;;2098170;28;20044;-75
2021/01/23 03:14:56;;;;;;;5.93;2.08;;;13.00;62.90;;;;;;2098753;28;20056;-75
2021/01/23 03:15:58;;;;;;;12.82;2.25;;;13.40;62.30;;;;;;2099636;28;20528;-74
2021/01/23 03:17:00;;;;;;;7.50;1.90;;;13.50;59.60;;;;;;2099738;28;20049;-74
2021/01/23 03:18:03;;;;;;;4.72;1.90;;;13.50;60.80;;;;;;2100773;28;20052;-75
2021/01/23 03:19:05;;;;;;;5.75;1.90;;;13.60;60.20;;;;;;2101063;28;20070;-75
2021/01/23 03:20:08;;;;;;;4.28;1.60;;;13.70;60.50;;;;;;2100870;28;20040;-74
2021/01/23 03:21:09;;;;;;;9.35;2.30;;;13.80;60.50;;;;;;2100921;28;20044;-75
2021/01/23 03:22:11;;;;;;;3.63;1.80;;;14.10;59.80;;;;;;2100725;28;20048;-75
2021/01/23 03:23:14;;;;;;;3.90;1.63;;;14.30;59.20;;;;;;2099940;28;20080;-74
2021/01/23 03:24:18;;;;;;;9.50;2.30;;;14.40;58.20;;;;;;2099680;28;20052;-75
2021/01/23 03:25:19;;;;;;;6.32;2.25;;;14.50;57.30;;;;;;2100179;28;20389;-75
2021/01/23 03:26:21;;;;;;;7.90;2.08;;;14.40;56.80;;;;;;2099406;28;20051;-74
2021/01/23 03:27:24;;;;;;;5.75;2.13;;;14.10;56.60;;;;;;2098701;28;20051;-74
2021/01/23 03:28:26;;;;;;;12.23;3.30;;;13.80;55.90;;;;;;2098200;28;20049;-75
2021/01/23 03:29:28;;;;;;;6.93;2.03;;;13.20;56.00;;;;;;2098378;28;20052;-75
2021/01/23 03:30:30;;;;;;;3.80;1.65;;;12.90;60.00;;;;;;2097668;28;20045;-75
2021/01/23 03:31:33;;;;;;;6.90;1.70;;;13.10;60.60;;;;;;2097451;28;20071;-74
2021/01/23 03:32:35;;;;;;;4.13;1.73;;;13.10;62.00;;;;;;2097991;28;20048;-75
2021/01/23 03:33:38;;;;;;;7.40;1.83;;;12.90;62.60;;;;;;2097879;28;20459;-74
2021/01/23 03:34:40;;;;;;;8.57;2.13;;;13.10;61.30;;;;;;2097678;28;20045;-74
2021/01/23 03:35:43;;;;;;;3.92;1.70;;;13.10;61.10;;;;;;2098142;28;20041;-74
2021/01/23 03:36:45;;;;;;;6.20;2.03;;;12.70;62.20;;;;;;2097934;28;20048;-75
2021/01/23 03:37:48;;;;;;;10.43;3.13;;;12.50;59.90;;;;;;2097996;28;20044;-74
2021/01/23 03:38:50;;;;;;;4.95;1.67;;;12.30;60.40;;;;;;2097739;28;20051;-75
2021/01/23 03:39:52;;;;;;;;;;;12.40;63.20;;;;;;2098322;28;20052;-75
2021/01/23 03:40:53;;;;;;;4.90;1.70;;;12.60;64.70;;;;;;2097850;28;19932;-74
2021/01/23 03:41:55;;;;;;;4.35;1.77;;;12.80;63.10;;;;;;2097720;28;20288;-74
2021/01/23 03:42:57;;;;;;;6.20;1.70;;;12.70;62.20;;;;;;2097766;28;20049;-74
2021/01/23 03:43:59;;;;;;;4.80;1.67;;;12.90;63.70;;;;;;2097578;28;20047;-75
2021/01/23 03:45:02;;;;;;;8.15;2.28;;;13.00;62.00;;;;;;2097746;28;20052;-75
2021/01/23 03:46:04;;;;;;;5.43;2.00;;;13.10;60.70;;;;;;2097893;28;20508;-74
2021/01/23 03:47:05;;;;;;;8.27;2.30;;;13.30;61.10;;;;;;2097973;28;20040;-75
2021/01/23 03:48:08;;;;;;;7.32;1.90;;;13.10;59.90;;;;;;2098050;28;20455;-75
2021/01/23 03:49:11;;;;;;;8.57;2.30;;;13.30;61.10;;;;;;2097937;28;20063;-74
2021/01/23 03:50:14;;;;;;;5.13;1.95;;;13.20;60.10;;;;;;2097862;28;20070;-74
2021/01/23 03:51:16;;;;;;;5.80;2.20;;;12.90;62.70;;;;;;2097974;28;20068;-74
2021/01/23 03:52:17;;;;;;;9.90;2.08;;;13.10;61.30;;;;;;2097641;28;20044;-75
2021/01/23 03:53:19;;;;;;;5.82;1.83;;;13.30;59.50;;;;;;2097922;28;20053;-75
2021/01/23 03:54:21;;;;;;;9.52;2.55;;;13.00;60.80;;;;;;2097840;28;20045;-75
2021/01/23 03:55:22;;;;;;;8.48;2.40;;;12.90;59.30;;;;;;2097976;28;20419;-75
2021/01/23 03:56:24;;;;;;;6.45;2.25;;;12.60;60.30;;;;;;2098189;28;20048;-75
2021/01/23 03:57:26;;;;;;;5.78;2.00;;;12.70;62.10;;;;;;2097911;28;20048;-74
2021/01/23 03:58:27;;;;;;;4.90;2.28;;;13.20;61.50;;;;;;2098160;28;20049;-74
2021/01/23 03:59:29;;;;;;;6.28;1.95;;;13.00;60.10;;;;;;2098082;28;20051;-74
2021/01/23 04:00:31;;;;;;;3.97;1.42;;;13.10;60.80;;;;;;2097771;28;20072;-74
2021/01/23 04:01:32;;;;;;;6.70;1.77;;;13.50;61.60;;;;;;2097676;28;20055;-75
2021/01/23 04:02:34;;;;;;;;;;;13.50;60.50;;;;;;2098401;28;20455;-75
2021/01/23 04:03:37;;;;;;;4.43;1.58;;;13.60;60.30;;;;;;2098208;28;19920;-75
2021/01/23 04:04:40;;;;;;;4.47;1.45;;;13.60;59.40;;;;;;2098343;28;20480;-74
2021/01/23 04:05:42;;;;;;;6.13;2.30;;;13.90;59.50;;;;;;2097794;28;20044;-74
2021/01/23 04:06:43;;;;;;;8.48;2.50;;;13.80;59.40;;;;;;2098200;28;20441;-75
2021/01/23 04:07:45;;;;;;;7.88;2.38;;;13.60;57.30;;;;;;2097998;28;20054;-75
2021/01/23 04:08:46;;;;;;;3.85;1.83;;;13.30;59.50;;;;;;2098380;28;20052;-74
2021/01/23 04:09:48;;;;;;;4.47;1.40;;;13.40;59.60;;;;;;2097477;28;20095;-74
2021/01/23 04:10:50;;;;;;;5.50;1.80;;;13.30;59.80;;;;;;2097380;28;20068;-75
2021/01/23 04:11:51;;;;;;;5.00;1.65;;;13.20;59.10;;;;;;2098346;28;20049;-74
2021/01/23 04:12:53;;;;;;;5.75;2.28;;;13.00;60.60;;;;;;2098129;28;20527;-75
2021/01/23 04:13:55;;;;;;;11.55;2.03;;;12.80;60.00;;;;;;2097829;28;20050;-75
2021/01/23 04:14:56;;;;;;;6.15;1.85;;;12.50;61.50;;;;;;2097931;28;20049;-75
2021/01/23 04:15:58;;;;;;;9.00;2.60;;;12.30;61.30;;;;;;2098175;28;20051;-74
2021/01/23 04:17:00;;;;;;;9.48;2.65;;;11.90;61.10;;;;;;2099184;28;20045;-75
2021/01/23 04:18:02;;;;;;;8.05;1.98;;;11.40;63.70;;;;;;2099175;28;20045;-75
2021/01/23 04:19:04;;;;;;;6.18;2.20;;;11.50;65.70;;;;;;2099124;28;20501;-74
2021/01/23 04:20:08;;;;;;;5.50;2.20;;;11.80;67.60;;;;;;2099274;28;20045;-74
2021/01/23 04:21:09;;;;;;;9.98;2.35;;;11.60;65.50;;;;;;2099409;28;20052;-75
2021/01/23 04:22:11;;;;;;;6.70;1.98;;;11.20;65.70;;;;;;2099379;28;20396;-75
2021/01/23 04:23:13;;;;;;;7.85;2.42;;;11.60;65.80;;;;;;2099424;28;20055;-74
2021/01/23 04:24:14;;;;;;;8.90;2.47;;;11.80;64.40;;;;;;2099692;28;20075;-74
2021/01/23 04:25:16;;;;;;;8.05;1.85;;;10.90;64.60;;;;;;2099545;28;20499;-75
2021/01/23 04:26:19;;;;;;;8.55;2.00;;;11.10;69.90;;;;;;2099614;28;20409;-75
2021/01/23 04:27:22;;;;;;;7.07;2.45;;;11.00;70.00;;;;;;2099147;28;20071;-75
2021/01/23 04:28:23;;;;;;;4.30;1.80;;;10.80;66.10;;;;;;2098545;28;20296;-75
2021/01/23 04:29:25;;;;;;;7.18;1.92;;;11.10;71.70;;;;;;2098551;28;20055;-75
2021/01/23 04:30:27;;;;;;;5.40;1.80;;;11.00;70.70;;;;;;2098071;28;20524;-75
2021/01/23 04:31:28;;;;;;;6.95;2.13;;;11.00;70.50;;;;;;2097849;28;20044;-75
2021/01/23 04:32:30;;;;;;;5.10;1.92;;;11.50;69.00;;;;;;2098039;28;20045;-74
2021/01/23 04:33:34;;;;;;;5.70;2.60;;;11.70;67.70;;;;;;2097654;28;20119;-75
2021/01/23 04:34:37;;;;;;;11.50;3.03;;;11.80;65.40;;;;;;2098042;28;20072;-75
2021/01/23 04:35:40;;;;;;;5.45;1.90;;;11.50;63.60;;;;;;2098025;28;20048;-75
2021/01/23 04:36:42;;;;;;;5.38;2.20;;;11.70;66.30;;;;;;2098120;28;20063;-75
2021/01/23 04:37:43;;;;;;;7.57;2.40;;;11.40;67.30;;;;;;2098044;28;20393;-75
2021/01/23 04:38:45;;;;;;;7.95;2.45;;;11.40;66.90;;;;;;2098079;28;20505;-74
2021/01/23 04:39:48;;;;;;;9.63;2.80;;;11.20;66.80;;;;;;2097493;28;20044;-74
2021/01/23 04:40:49;;;;;;;;;;;10.90;65.80;;;;;;2099181;28;20049;-76
2021/01/23 04:41:51;;;;;;;7.63;2.10;;;11.50;66.60;;;;;;2098079;28;19931;-75
2021/01/23 04:42:53;;;;;;;9.18;2.50;;;11.30;64.30;;;;;;2098058;28;20389;-74
2021/01/23 04:43:54;;;;;;;;;;;11.10;67.90;;;;;;2098408;28;20052;-74
2021/01/23 04:44:56;;;;;;;9.65;2.83;;;11.10;68.50;;;;;;2098689;28;19927;-74
2021/01/23 04:45:58;;;;;;;6.30;2.05;;;11.10;66.70;;;;;;2098332;28;20059;-74
2021/01/23 04:47:03;;;;;;;3.78;1.52;;;11.40;67.30;;;;;;2098866;28;20052;-75
2021/01/23 04:48:06;;;;;;;6.25;2.00;;;12.10;66.80;;;;;;2098344;28;20075;-74
2021/01/23 04:49:07;;;;;;;5.47;2.35;;;12.00;67.50;;;;;;2098160;28;20489;-75
2021/01/23 04:50:11;;;;;;;6.60;2.22;;;12.30;64.30;;;;;;2098156;28;20045;-74
2021/01/23 04:51:14;;;;;;;5.97;2.00;;;12.10;61.80;;;;;;2098420;28;20048;-74
2021/01/23 04:52:16;;;;;;;5.30;2.33;;;12.10;66.00;;;;;;2105820;28;20051;-74
2021/01/23 04:53:17;;;;;;;9.77;2.45;;;12.50;64.50;;;;;;2105777;28;20424;-75
2021/01/23 04:54:19;;;;;;;7.32;2.20;;;11.70;63.10;;;;;;2097999;28;20489;-75
2021/01/23 04:55:21;;;;;;;5.38;2.20;;;11.60;64.00;;;;;;2097719;28;20515;-75
2021/01/23 04:56:25;;;;;;;7.20;1.80;;;11.30;66.90;;;;;;2097822;28;20047;-75
2021/01/23 04:57:27;;;;;;;10.57;2.28;;;11.50;66.30;;;;;;2097901;28;20051;-75
2021/01/23 04:58:29;;;;;;;4.15;1.65;;;11.20;66.50;;;;;;2098142;28;20414;-75
2021/01/23 04:59:31;;;;;;;3.17;1.55;;;11.60;69.20;;;;;;2098166;28;20052;-75
2021/01/23 05:00:34;;;;;;;11.48;2.20;;;12.10;67.20;;;;;;2097757;28;20044;-75
2021/01/23 05:01:35;;;;;;;5.50;1.80;;;11.50;63.50;;;;;;2097506;28;20051;-75
2021/01/23 05:02:37;;;;;;;;;;;11.90;67.20;;;;;;2097767;28;20083;-75
2021/01/23 05:03:56;;;;;;;6.93;2.08;;;12.00;63.00;;;;;;2097586;28;20399;-75
2021/01/23 05:05:00;;;;;;;9.02;2.40;;;11.80;63.90;;;;;;2097929;28;20049;-74
2021/01/23 05:06:05;;;;;;;5.18;2.20;;;11.70;64.80;;;;;;2097046;28;20500;-75
2021/01/23 05:07:08;;;;;;;6.10;2.25;;;11.70;67.10;;;;;;2097743;28;20516;-74
2021/01/23 05:08:11;;;;;;;7.53;2.15;;;11.40;66.90;;;;;;2098195;28;20049;-75
2021/01/23 05:09:25;;;;;;;5.88;2.00;;;11.60;67.30;;;;;;2098273;28;20045;-74
2021/01/23 05:10:27;;;;;;;8.25;2.00;;;11.60;64.40;;;;;;2097653;28;20079;-74
2021/01/23 05:11:44;;;;;;;;;;;11.90;64.70;;;;;;2098250;28;20541;-75
2021/01/23 05:12:47;;;;;;;10.75;2.92;;;11.80;65.20;;;;;;2098118;28;19928;-75
2021/01/23 05:14:09;;;;;;;8.80;2.33;;;12.00;62.70;;;;;;2098219;28;20491;-75
2021/01/23 05:15:19;;;;;;;8.13;2.60;;;12.20;63.70;;;;;;2097822;28;20044;-75
2021/01/23 05:16:25;;;;;;;7.32;1.98;;;12.40;62.30;;;;;;2098666;28;20061;-75
2021/01/23 05:17:27;;;;;;;3.70;1.77;;;12.00;64.00;;;;;;2098811;28;20405;-75
2021/01/23 05:18:29;;;;;;;;;;;11.90;66.00;;;;;;2100353;28;20048;-75
2021/01/23 05:19:41;;;;;;;6.20;2.08;;;11.90;64.30;;;;;;2100418;28;19927;-75
2021/01/23 05:20:47;;;;;;;6.10;1.67;;;12.20;64.70;;;;;;2100816;28;20064;-75
2021/01/23 05:22:00;;;;;;;5.70;2.03;;;12.30;65.50;;;;;;2101661;28;20045;-75
2021/01/23 05:23:05;;;;;;;9.13;2.65;;;12.60;64.30;;;;;;2102076;28;20041;-75
2021/01/23 05:24:12;;;;;;;7.65;2.25;;;12.50;61.70;;;;;;2102030;28;20040;-77
2021/01/23 05:25:15;;;;;;;4.55;1.63;;;12.80;63.30;;;;;;2102114;28;20052;-75
2021/01/23 05:26:25;;;;;;;7.07;2.25;;;13.20;62.80;;;;;;2101129;28;20048;-75
2021/01/23 05:27:26;;;;;;;5.90;1.98;;;13.20;61.80;;;;;;2101191;28;20056;-75
2021/01/23 05:28:31;;;;;;;10.55;2.28;;;13.40;61.00;;;;;;2101327;28;20048;-75
2021/01/23 05:29:33;;;;;;;3.53;1.60;;;13.40;58.80;;;;;;2101286;28;20051;-75
2021/01/23 05:30:45;;;;;;;5.13;1.60;;;13.40;59.60;;;;;;2100738;28;20087;-75
2021/01/23 05:31:47;;;;;;;;;;;13.70;59.60;;;;;;2098639;28;20389;-74
2021/01/23 05:33:05;;;;;;;7.72;2.33;;;13.60;58.20;;;;;;2097538;28;19965;-75